Nearby METAR Reports
METARS update every hour


KCEY - Murray Kyle-Oak, Kentucky, USA
Distance from station: N 44mi, 71km
Updated: Thu, 29 Jun 2017 06:55 CDT
NOT Current
Clear
Clear
 Wind from S
Wind: S 8 mph , 13 km/h
Temperature: 72°F , 22°C
Dew Point: 70°F , 21°C
Humidity: 94%
Barometer: 30.04 inHg , 1017.3 hPa
Clouds: Clear
Visibility: 10 miles , 16 km
2017/06/29 11:55 KCEY 291155Z AUTO 19007KT 10SM CLR 22/21 A3004 RMK AO1
KUCY - Union City, Tennessee, USA
Distance from station: WNW 48mi, 77km
Updated: Thu, 29 Jun 2017 08:55 CDT
Partly cloudy
Partly cloudy
 Wind from SW
Wind: SW 9 mph , 15 km/h
Temperature: 79°F , 26°C
Dew Point: 72°F , 22°C
Humidity: 79%
Barometer: 30.01 inHg , 1016.3 hPa
Clouds: Partly cloudy
Visibility: 10 miles , 16 km
Cloud Details: Few Clouds 1500 ft
Partly cloudy 7000 ft
2017/06/29 13:55 KUCY 291355Z AUTO 23008KT 10SM FEW015 SCT070 26/22 A3001 RMK A01
 
KMKL - Jackson, Tennessee, USA
Distance from station: SW 48mi, 78km
Updated: Thu, 29 Jun 2017 08:53 CDT
Partly cloudy
Partly cloudy
 Wind from S
Wind: S 8 mph , 13 km/h
Temperature: 79°F , 26°C
Dew Point: 72°F , 22°C
Humidity: 79%
Barometer: 30.03 inHg , 1016.9 hPa
Clouds: Partly cloudy
Visibility: 10 miles , 16 km
Cloud Details: Partly cloudy 1600 ft
2017/06/29 13:53 KMKL 291353Z 18007KT 10SM SCT016 26/22 A3003 RMK AO2 SLP164 T02560217
KHOP - Hopkinsville, Kentucky, USA
Distance from station: NE 60mi, 97km
Updated: Thu, 29 Jun 2017 08:58 CDT
Few Clouds
Few Clouds
 Wind from S
Wind: S 7 mph , 11 km/h
Temperature: 77°F , 25°C
Dew Point: 68°F , 20°C
Humidity: 74%
Barometer: 30.05 inHg , 1017.6 hPa
Clouds: Few Clouds
Visibility: 10 miles , 16 km
Cloud Details: Few Clouds 7500 ft
2017/06/29 13:58 KHOP 291358Z AUTO 18006KT 10SM FEW075 25/20 A3005 RMK AO2 SLP172 T02460203
 
KCKV - Clarksville, Tennessee, USA
Distance from station: NE 61mi, 98km
Updated: Thu, 29 Jun 2017 08:52 CDT
Overcast
Overcast
 Wind from SSW
Wind: SSW 8 mph , 13 km/h
Temperature: 77°F , 25°C
Dew Point: 68°F , 20°C
Humidity: 74%
Barometer: 30.06 inHg , 1017.9 hPa
Clouds: Overcast
Visibility: 10 miles , 16 km
Cloud Details: Overcast 7500 ft
2017/06/29 13:52 KCKV 291352Z AUTO 21007KT 10SM OVC075 25/20 A3006 RMK AO2 SLP174 T02500200
KDYR - Dyersburg, Tennessee, USA
Distance from station: W 65mi, 104km
Updated: Thu, 15 Jun 2017 08:56 CDT
NOT Current
Thunderstorm
Thunderstorm
 
Summary: Thunderstorm
2017/06/15 13:56 KDYR 151356Z AUTO TS RMK AO2 LTG DSNT ALQDS SLPNO PWINO FZRANO $
 
KMRC - Columbia, Tennessee, USA
Distance from station: ESE 68mi, 110km
Updated: Thu, 29 Jun 2017 08:55 CDT
Overcast
Overcast
 Wind from S
Wind: S 8 mph , 13 km/h, Gust: 14 mph , 22 km/h
Temperature: 77°F , 25°C
Dew Point: 72°F , 22°C
Humidity: 83%
Barometer: 30.07 inHg , 1018.3 hPa
Clouds: Overcast
Visibility: 10 miles , 16 km
Cloud Details: Overcast 2000 ft
2017/06/29 13:55 KMRC 291355Z AUTO 18007G12KT 10SM OVC020 25/22 A3007 RMK A01
KPAH - Paducah, Kentucky, USA
Distance from station: NNW 77mi, 124km
Updated: Thu, 29 Jun 2017 08:53 CDT
Clear
Clear
 Wind from SSW
Wind: SSW 10 mph , 17 km/h, Gust: 17 mph , 28 km/h
Temperature: 79°F , 26°C
Dew Point: 68°F , 20°C
Humidity: 70%
Barometer: 29.99 inHg , 1015.6 hPa
Clouds: Clear
Visibility: 10 miles , 16 km
2017/06/29 13:53 KPAH 291353Z 21009G15KT 180V240 10SM CLR 26/20 A2999 RMK AO2 SLP150 T02560200
 
KCRX - Corinth/R Turner, Mississippi, USA
Distance from station: SSW 80mi, 128km
Updated: Thu, 29 Jun 2017 08:55 CDT
Overcast
Overcast
 Wind from SSE
Wind: SSE 7 mph , 11 km/h, Gust: 13 mph , 20 km/h
Temperature: 77°F , 25°C
Dew Point: 70°F , 21°C
Humidity: 79%
Barometer: 30.05 inHg , 1017.6 hPa
Clouds: Overcast
Visibility: 10 miles , 16 km
Cloud Details: Mostly cloudy 1300 ft
Mostly cloudy 5000 ft
Overcast 6000 ft
2017/06/29 13:55 KCRX 291355Z AUTO 16006G11KT 10SM BKN013 BKN050 OVC060 25/21 A3005 RMK AO2
KM30 - Metropolis, Illinois, USA
Distance from station: NNW 84mi, 135km
Updated: Thu, 29 Jun 2017 08:55 CDT
Clear
Clear
 Wind from S
Wind: S 9 mph , 15 km/h
Temperature: 79°F , 26°C
Dew Point: 72°F , 22°C
Humidity: 79%
Barometer: 30.00 inHg , 1015.9 hPa
Clouds: Clear
Visibility: 10 miles , 16 km
2017/06/29 13:55 KM30 291355Z AUTO 19008KT 10SM CLR 26/22 A3000 RMK AO2 T02580215
 
KBNA - Nashville, Tennessee, USA
Distance from station: E 87mi, 141km
Updated: Thu, 29 Jun 2017 08:53 CDT
Mostly cloudy
Mostly cloudy
 Wind from SW
Wind: SW 10 mph , 17 km/h
Temperature: 81°F , 27°C
Heat Index: 83°F , 28°C
Dew Point: 66°F , 19°C
Humidity: 62%
Barometer: 30.10 inHg , 1019.3 hPa
Clouds: Mostly cloudy
Visibility: 10 miles , 16 km
Cloud Details: Few Clouds 2500 ft
Partly cloudy 5500 ft
Mostly cloudy 10000 ft
Mostly cloudy 25000 ft
2017/06/29 13:53 KBNA 291353Z 22009KT 10SM FEW025 SCT055 BKN100 BKN250 27/19 A3010 RMK AO2 SLP184 T02670194
KHKA - Blytheville, Arkansas, USA
Distance from station: W 89mi, 143km
Updated: Thu, 29 Jun 2017 08:53 CDT
Mostly cloudy
Mostly cloudy
 Wind from S
Wind: S 12 mph , 19 km/h
Temperature: 79°F , 26°C
Dew Point: 72°F , 22°C
Humidity: 79%
Barometer: 30.01 inHg , 1016.3 hPa
Clouds: Mostly cloudy
Visibility: 10 miles , 16 km
Cloud Details: Mostly cloudy 1700 ft
2017/06/29 13:53 KHKA 291353Z AUTO 19010KT 10SM BKN017 26/22 A3001 RMK AO2 SLP158 T02560222
 
KCIR - Cairo, Illinois, USA
Distance from station: NW 89mi, 144km
Updated: Thu, 29 Jun 2017 08:55 CDT
Partly cloudy
Partly cloudy
 Wind from S
Wind: S 9 mph , 15 km/h
Temperature: 77°F , 25°C
Dew Point: 72°F , 22°C
Humidity: 83%
Barometer: 30.00 inHg , 1015.9 hPa
Clouds: Partly cloudy
Visibility: 10 miles , 16 km
Cloud Details: Partly cloudy 1600 ft
2017/06/29 13:55 KCIR 291355Z AUTO 19008KT 10SM SCT016 25/22 A3000 RMK AO2 T02500215
KBYH - Blytheville, Arkansas, USA
Distance from station: W 95mi, 154km
Updated: Thu, 22 Jun 2017 15:50 CDT
NOT Current
Mostly cloudy
Mostly cloudy
 Wind from SSE
Wind: SSE 9 mph , 15 km/h, Gust: 22 mph , 35 km/h
Temperature: 88°F , 31°C
Heat Index: 98°F , 37°C
Dew Point: 75°F , 24°C
Humidity: 66%
Barometer: 29.76 inHg , 1007.8 hPa
Clouds: Mostly cloudy
Visibility: 10 miles , 16 km
Cloud Details: Mostly cloudy 2700 ft
Mostly cloudy 9000 ft
2017/06/22 20:50 KBYH 222050Z 16008G19KT 10SM BKN027 BKN090 31/24 A2976 RMK LAST
 
KMSL - Muscle Shoal, Alabama, USA
Distance from station: SSE 96mi, 154km
Updated: Thu, 29 Jun 2017 08:53 CDT
Mostly cloudy
Mostly cloudy
 Wind from SE
Wind: SE 8 mph , 13 km/h
Temperature: 77°F , 25°C
Dew Point: 70°F , 21°C
Humidity: 79%
Barometer: 30.09 inHg , 1019 hPa
Clouds: Mostly cloudy
Visibility: 10 miles , 16 km
Cloud Details: Few Clouds 1900 ft
Mostly cloudy 5500 ft
Mostly cloudy 8500 ft
2017/06/29 13:53 KMSL 291353Z AUTO 14007KT 10SM FEW019 BKN055 BKN085 25/21 A3009 RMK AO2 SLP184 T02500206
KMQY - Smyrna, Tennessee, USA
Distance from station: E 97mi, 155km
Updated: Thu, 29 Jun 2017 08:56 CDT
Mostly cloudy
Mostly cloudy
 Wind from S
Wind: S 7 mph , 11 km/h
Temperature: 77°F , 25°C
Dew Point: 66°F , 19°C
Humidity: 69%
Barometer: 30.11 inHg , 1019.6 hPa
Clouds: Mostly cloudy
Visibility: 10 miles , 16 km
Cloud Details: Few Clouds 4500 ft
Mostly cloudy 11000 ft
2017/06/29 13:56 KMQY 291356Z 17006KT 10SM FEW045 BKN110 25/19 A3011 RMK AO2 SLP090 T02500194
 
K2I0 - Madisonville, Kentucky, USA
Distance from station: NNE 102mi, 164km
Updated: Thu, 29 Jun 2017 08:35 CDT
Clear
Clear
 Wind from SSW
Wind: SSW 14 mph , 22 km/h, Gust: 22 mph , 35 km/h
Temperature: 79°F , 26°C
Dew Point: 70°F , 21°C
Humidity: 74%
Barometer: 30.03 inHg , 1016.9 hPa
Clouds: Clear
Visibility: 10 miles , 16 km
2017/06/29 13:35 K2I0 291335Z AUTO 20012G19KT 10SM CLR 26/21 A3003 RMK AO2 T02560212
KNQA - Millington/88d, Tennessee, USA
Distance from station: WSW 103mi, 165km
Updated: Thu, 29 Jun 2017 08:50 CDT
Mostly cloudy
Mostly cloudy
 Wind from S
Wind: S 9 mph , 15 km/h
Temperature: 77°F , 25°C
Dew Point: 72°F , 22°C
Humidity: 83%
Barometer: 30.00 inHg , 1015.9 hPa
Clouds: Mostly cloudy
Visibility: 10 miles , 16 km
Cloud Details: Mostly cloudy 1700 ft
Mostly cloudy 3500 ft
2017/06/29 13:50 KNQA 291350Z 17008KT 10SM BKN017 BKN035 25/22 A3000
 
K9A4 - Courtland, Alabama, USA
Distance from station: SSE 107mi, 172km
Updated: Thu, 22 Aug 2013 14:15 CDT
NOT Current
Clear
Clear
 Wind from NNE
Wind: NNE 6 mph , 9 km/h
Temperature: 84°F , 29°C
Heat Index: 89°F , 32°C
Dew Point: 72°F , 22°C
Humidity: 66%
Barometer: 30.10 inHg , 1019.3 hPa
Clouds: Clear
Visibility: 10 miles , 16 km
2013/08/22 19:15 K9A4 221915Z AUTO 03005KT 10SM CLR 29/22 A3010 RMK AO2
KCGI - Cape Girardeau, Missouri, USA
Distance from station: NW 111mi, 179km
Updated: Thu, 29 Jun 2017 08:53 CDT
Clear
Clear
 Wind from SSW
Wind: SSW 12 mph , 19 km/h
Temperature: 79°F , 26°C
Dew Point: 70°F , 21°C
Humidity: 74%
Barometer: 29.98 inHg , 1015.2 hPa
Clouds: Clear
Visibility: 10 miles , 16 km
2017/06/29 13:53 KCGI 291353Z 21010KT 10SM CLR 26/21 A2998 RMK AO2 SLP149 T02560211